Time;durP1;ratioP1;P1;durP2;ratioP2;P2;SDS_P1;SDS_P2;PMS_P1;PMS_P2;Temp;Humidity;BMP_temperature;BMP_pressure;BME280_temperature;BME280_humidity;BME280_pressure;Samples;Min_cycle;Max_cycle;Signal;HPM_P1;HPM_P2
2023/08/11 00:01:50;;;;;;;4.53;2.88;;;;;;;;;;5043924;28;20057;-75
2023/08/11 00:04:25;;;;;;;;;;;;;;;;;;5044211;28;20057;-74
2023/08/11 00:07:03;;;;;;;8.68;3.17;;;;;;;;;;5043588;28;19924;-76
2023/08/11 00:09:39;;;;;;;7.18;3.05;;;;;;;;;;5043766;28;20412;-75
2023/08/11 00:12:12;;;;;;;4.85;3.25;;;;;;;;;;5044312;28;20045;-74
2023/08/11 00:14:50;;;;;;;8.90;3.40;;;;;;;;;;5043339;28;20041;-74
2023/08/11 00:17:27;;;;;;;6.90;2.63;;;;;;;;;;5043621;28;20056;-75
2023/08/11 00:20:00;;;;;;;9.32;2.92;;;;;;;;;;5043104;28;20045;-76
2023/08/11 00:22:34;;;;;;;10.07;3.00;;;;;;;;;;5043365;28;20436;-74
2023/08/11 00:25:08;;;;;;;8.27;3.25;;;;;;;;;;5043017;28;20053;-75
2023/08/11 00:27:44;;;;;;;5.75;2.95;;;;;;;;;;5043510;28;20065;-75
2023/08/11 00:30:24;;;;;;;10.35;3.13;;;;;;;;;;5042580;28;20057;-75
2023/08/11 00:32:58;;;;;;;10.07;3.42;;;;;;;;;;5043516;28;20065;-75
2023/08/11 00:35:36;;;;;;;5.88;3.08;;;;;;;;;;5042664;28;20057;-75
2023/08/11 00:38:09;;;;;;;13.00;3.40;;;;;;;;;;5043794;28;20052;-80
2023/08/11 00:40:44;;;;;;;9.95;3.50;;;;;;;;;;5043137;28;20619;-75
2023/08/11 00:43:22;;;;;;;7.55;2.78;;;;;;;;;;5041266;28;20515;-75
2023/08/11 00:46:04;;;;;;;4.50;3.22;;;;;;;;;;5041931;28;20507;-75
2023/08/11 00:48:50;;;;;;;8.25;3.50;;;;;;;;;;5044327;28;20048;-74
2023/08/11 00:51:25;;;;;;;10.63;3.00;;;;;;;;;;5041886;28;20057;-75
2023/08/11 00:53:59;;;;;;;8.90;3.00;;;;;;;;;;5043365;28;20051;-74
2023/08/11 00:56:32;;;;;;;7.78;3.40;;;;;;;;;;5043053;28;20056;-74
2023/08/11 00:59:09;;;;;;;9.65;3.60;;;;;;;;;;5041702;28;20073;-75
2023/08/11 01:01:44;;;;;;;7.45;3.17;;;;;;;;;;5041746;28;20067;-74
2023/08/11 01:04:17;;;;;;;9.30;3.50;;;;;;;;;;5040919;28;20056;-74
2023/08/11 01:06:55;;;;;;;5.95;3.35;;;;;;;;;;5039616;28;20408;-74
2023/08/11 01:09:47;;;;;;;12.40;3.80;;;;;;;;;;5042430;28;20068;-77
2023/08/11 01:12:58;;;;;;;8.32;3.72;;;;;;;;;;5042309;28;20048;-74
2023/08/11 01:15:40;;;;;;;5.70;3.70;;;;;;;;;;5030328;28;20057;-72
2023/08/11 01:18:24;;;;;;;10.63;3.50;;;;;;;;;;5043322;28;20519;-76
2023/08/11 01:21:13;;;;;;;11.30;3.90;;;;;;;;;;5041234;28;20052;-74
2023/08/11 01:23:47;;;;;;;10.23;3.95;;;;;;;;;;5042134;28;20052;-75
2023/08/11 01:26:23;;;;;;;9.48;3.95;;;;;;;;;;5040360;28;20056;-74
2023/08/11 01:28:56;;;;;;;8.32;3.65;;;;;;;;;;5041984;28;20066;-73
2023/08/11 01:31:32;;;;;;;8.68;3.75;;;;;;;;;;5042185;28;20083;-73
2023/08/11 01:34:11;;;;;;;10.35;4.00;;;;;;;;;;5041064;28;20392;-74
2023/08/11 01:36:45;;;;;;;5.03;3.55;;;;;;;;;;5040483;28;20064;-74
2023/08/11 01:39:22;;;;;;;7.20;4.13;;;;;;;;;;5040187;28;20056;-74
2023/08/11 01:42:05;;;;;;;9.40;4.05;;;;;;;;;;5039971;28;20747;-74
2023/08/11 01:44:38;;;;;;;6.93;3.95;;;;;;;;;;5042700;28;20053;-74
2023/08/11 01:47:12;;;;;;;6.18;3.67;;;;;;;;;;5038792;28;20056;-73
2023/08/11 01:49:47;;;;;;;5.40;3.42;;;;;;;;;;5042526;28;20059;-74
2023/08/11 01:52:22;;;;;;;5.63;3.67;;;;;;;;;;5040059;28;20056;-74
2023/08/11 01:54:54;;;;;;;8.77;3.80;;;;;;;;;;5041485;28;20476;-76
2023/08/11 01:57:30;;;;;;;12.30;3.40;;;;;;;;;;5041594;28;20049;-74
2023/08/11 02:00:28;;;;;;;6.25;3.78;;;;;;;;;;5040330;28;20053;-74
2023/08/11 02:03:02;;;;;;;7.05;4.10;;;;;;;;;;5040353;28;20053;-74
2023/08/11 02:05:35;;;;;;;8.65;3.72;;;;;;;;;;5041316;28;20045;-74
2023/08/11 02:08:06;;;;;;;4.85;3.42;;;;;;;;;;5042452;28;20053;-74
2023/08/11 02:10:37;;;;;;;6.50;3.65;;;;;;;;;;5024318;28;20060;-74
2023/08/11 02:13:10;;;;;;;5.63;3.53;;;;;;;;;;5040864;28;20052;-74
2023/08/11 02:15:40;;;;;;;9.93;3.70;;;;;;;;;;5041149;28;20412;-73
2023/08/11 02:18:10;;;;;;;8.48;3.70;;;;;;;;;;5041159;28;20048;-74
2023/08/11 02:20:41;;;;;;;5.80;3.60;;;;;;;;;;5041549;28;20071;-74
2023/08/11 02:23:13;;;;;;;7.13;4.22;;;;;;;;;;5039456;28;20219;-74
2023/08/11 02:25:43;;;;;;;9.65;3.55;;;;;;;;;;5041124;28;20049;-74
2023/08/11 02:28:14;;;;;;;10.80;3.60;;;;;;;;;;5036854;28;20065;-73
2023/08/11 02:30:44;;;;;;;6.28;3.70;;;;;;;;;;5041473;28;20103;-74
2023/08/11 02:33:18;;;;;;;8.40;3.50;;;;;;;;;;5041053;28;20049;-74
2023/08/11 02:35:48;;;;;;;7.97;3.42;;;;;;;;;;5040658;28;20508;-73
2023/08/11 02:38:18;;;;;;;7.55;3.40;;;;;;;;;;5039840;28;20064;-74
2023/08/11 02:40:49;;;;;;;5.38;3.22;;;;;;;;;;5040198;28;20057;-74
2023/08/11 02:43:21;;;;;;;7.60;3.65;;;;;;;;;;5040355;28;20480;-74
2023/08/11 02:45:51;;;;;;;6.65;3.78;;;;;;;;;;5041095;28;20052;-74
2023/08/11 02:48:22;;;;;;;6.63;3.45;;;;;;;;;;5023509;28;20414;-74
2023/08/11 02:50:52;;;;;;;8.30;4.13;;;;;;;;;;5041083;28;20511;-74
2023/08/11 02:53:23;;;;;;;6.25;3.70;;;;;;;;;;5040169;28;20060;-74
2023/08/11 02:55:55;;;;;;;7.50;3.47;;;;;;;;;;5039876;28;20053;-74
2023/08/11 02:58:26;;;;;;;10.18;3.05;;;;;;;;;;5040236;28;20535;-74
2023/08/11 03:00:57;;;;;;;7.38;3.67;;;;;;;;;;5041248;28;20064;-74
2023/08/11 03:03:28;;;;;;;10.43;3.53;;;;;;;;;;5041034;28;20103;-74
2023/08/11 03:05:59;;;;;;;8.10;3.53;;;;;;;;;;5041030;28;20049;-74
2023/08/11 03:08:30;;;;;;;8.68;3.80;;;;;;;;;;5039992;28;20444;-74
2023/08/11 03:11:00;;;;;;;7.75;3.42;;;;;;;;;;5040419;28;20107;-74
2023/08/11 03:13:36;;;;;;;5.90;3.30;;;;;;;;;;5040529;28;20072;-75
2023/08/11 03:16:07;;;;;;;4.65;3.40;;;;;;;;;;5040978;28;20056;-75
2023/08/11 03:18:38;;;;;;;5.75;3.60;;;;;;;;;;5043618;28;20534;-74
2023/08/11 03:21:08;;;;;;;6.57;3.63;;;;;;;;;;5042511;28;20068;-74
2023/08/11 03:23:50;;;;;;;8.77;4.00;;;;;;;;;;5028539;28;20064;-74
2023/08/11 03:26:21;;;;;;;8.52;3.78;;;;;;;;;;5042832;28;20052;-74
2023/08/11 03:28:52;;;;;;;5.03;3.40;;;;;;;;;;5044544;28;20515;-74
2023/08/11 03:31:23;;;;;;;6.40;3.53;;;;;;;;;;5043397;28;20355;-74
2023/08/11 03:33:55;;;;;;;6.25;3.47;;;;;;;;;;5042475;28;20534;-74
2023/08/11 03:36:26;;;;;;;6.22;3.50;;;;;;;;;;5044673;28;20056;-74
2023/08/11 03:38:57;;;;;;;7.55;3.55;;;;;;;;;;5042156;28;20053;-79
2023/08/11 03:41:27;;;;;;;8.05;3.42;;;;;;;;;;5043231;28;20334;-74
2023/08/11 03:43:58;;;;;;;5.28;3.38;;;;;;;;;;5043357;28;20049;-74
2023/08/11 03:46:31;;;;;;;5.40;2.95;;;;;;;;;;5042169;28;20432;-74
2023/08/11 03:49:02;;;;;;;6.90;3.30;;;;;;;;;;5043316;28;20114;-74
2023/08/11 03:51:33;;;;;;;6.97;3.38;;;;;;;;;;5042918;28;20060;-74
2023/08/11 03:54:04;;;;;;;8.20;3.00;;;;;;;;;;5042596;28;20049;-74
2023/08/11 03:56:37;;;;;;;9.93;2.80;;;;;;;;;;5042284;28;20068;-74
2023/08/11 03:59:08;;;;;;;8.75;3.25;;;;;;;;;;5042395;28;20075;-74
2023/08/11 04:01:39;;;;;;;10.35;3.13;;;;;;;;;;5042869;28;20057;-74
2023/08/11 04:04:10;;;;;;;6.72;2.83;;;;;;;;;;5042937;28;20053;-74
2023/08/11 04:06:41;;;;;;;6.03;3.25;;;;;;;;;;5042475;28;20056;-74
2023/08/11 04:09:12;;;;;;;9.50;3.67;;;;;;;;;;5044189;28;20037;-74
2023/08/11 04:11:43;;;;;;;8.27;3.08;;;;;;;;;;5044723;28;20064;-74
2023/08/11 04:14:13;;;;;;;5.18;3.20;;;;;;;;;;5043941;28;20674;-74
2023/08/11 04:16:47;;;;;;;11.90;2.95;;;;;;;;;;5042007;28;20060;-74
2023/08/11 04:19:18;;;;;;;7.13;3.00;;;;;;;;;;5042975;28;20056;-74
2023/08/11 04:21:49;;;;;;;4.63;2.72;;;;;;;;;;5043994;28;20060;-74
2023/08/11 04:24:22;;;;;;;5.60;3.20;;;;;;;;;;5042601;28;20056;-74
2023/08/11 04:26:54;;;;;;;6.20;2.63;;;;;;;;;;5043309;28;20044;-74
2023/08/11 04:29:26;;;;;;;4.22;2.65;;;;;;;;;;5041072;28;20062;-74
2023/08/11 04:32:02;;;;;;;5.20;2.60;;;;;;;;;;5043270;28;20056;-74
2023/08/11 04:34:35;;;;;;;4.63;2.88;;;;;;;;;;5026761;28;20057;-74
2023/08/11 04:37:05;;;;;;;5.40;2.80;;;;;;;;;;5041556;28;20416;-74
2023/08/11 04:39:37;;;;;;;6.53;2.75;;;;;;;;;;5042067;28;20400;-74
2023/08/11 04:42:08;;;;;;;5.47;2.90;;;;;;;;;;5042138;28;20049;-74
2023/08/11 04:44:39;;;;;;;4.82;2.90;;;;;;;;;;5041120;28;20056;-74
2023/08/11 04:47:10;;;;;;;6.40;2.78;;;;;;;;;;5025841;28;20057;-74
2023/08/11 04:49:43;;;;;;;4.85;3.00;;;;;;;;;;5042353;28;20053;-74
2023/08/11 04:52:14;;;;;;;10.27;2.72;;;;;;;;;;5041588;28;20056;-74
2023/08/11 04:54:46;;;;;;;6.82;2.55;;;;;;;;;;5043734;28;20053;-74
2023/08/11 04:57:17;;;;;;;5.80;2.78;;;;;;;;;;5041196;28;20527;-74
2023/08/11 04:59:49;;;;;;;5.07;2.90;;;;;;;;;;5041105;28;20056;-74
2023/08/11 05:02:20;;;;;;;5.10;2.63;;;;;;;;;;5043080;28;20044;-74
2023/08/11 05:04:51;;;;;;;6.68;2.72;;;;;;;;;;5043294;28;20045;-74
2023/08/11 05:07:23;;;;;;;4.05;2.53;;;;;;;;;;5043509;28;20534;-74
2023/08/11 05:09:53;;;;;;;4.78;2.60;;;;;;;;;;5042930;28;20063;-74
2023/08/11 05:12:24;;;;;;;10.23;2.83;;;;;;;;;;5042549;28;20033;-75
2023/08/11 05:14:54;;;;;;;5.75;2.33;;;;;;;;;;5042441;28;20060;-74
2023/08/11 05:17:26;;;;;;;5.88;2.80;;;;;;;;;;5042778;28;20412;-74
2023/08/11 05:19:56;;;;;;;6.30;2.65;;;;;;;;;;5042911;28;20483;-74
2023/08/11 05:22:27;;;;;;;8.50;3.10;;;;;;;;;;5042731;28;20407;-74
2023/08/11 05:24:57;;;;;;;3.50;2.30;;;;;;;;;;5041908;28;20049;-74
2023/08/11 05:27:28;;;;;;;3.25;2.80;;;;;;;;;;5042830;28;20492;-74
2023/08/11 05:29:58;;;;;;;6.28;3.05;;;;;;;;;;5042668;28;20041;-74
2023/08/11 05:32:29;;;;;;;5.85;2.95;;;;;;;;;;5042091;28;20048;-74
2023/08/11 05:35:00;;;;;;;6.35;2.80;;;;;;;;;;5042505;28;20159;-74
2023/08/11 05:37:32;;;;;;;5.25;2.28;;;;;;;;;;5042561;28;20511;-75
2023/08/11 05:40:04;;;;;;;10.68;2.75;;;;;;;;;;5041856;28;20497;-74
2023/08/11 05:42:34;;;;;;;5.43;2.63;;;;;;;;;;5040816;28;20527;-73
2023/08/11 05:45:05;;;;;;;6.55;2.40;;;;;;;;;;5041038;28;20854;-74
2023/08/11 05:47:35;;;;;;;3.80;2.45;;;;;;;;;;5041143;28;20618;-74
2023/08/11 05:50:08;;;;;;;4.10;2.53;;;;;;;;;;5042140;28;20056;-74
2023/08/11 05:52:38;;;;;;;7.55;3.17;;;;;;;;;;5042047;28;20885;-75
2023/08/11 05:55:08;;;;;;;8.23;3.20;;;;;;;;;;5042133;28;20373;-74
2023/08/11 05:57:39;;;;;;;4.70;3.15;;;;;;;;;;5042182;28;20684;-74
2023/08/11 06:00:10;;;;;;;4.88;3.05;;;;;;;;;;5042308;28;20044;-74
2023/08/11 06:02:40;;;;;;;5.82;2.65;;;;;;;;;;5041978;28;20060;-76
2023/08/11 06:05:15;;;;;;;6.38;2.65;;;;;;;;;;5042219;28;20060;-76
2023/08/11 06:07:46;;;;;;;5.85;3.25;;;;;;;;;;5041811;28;20052;-76
2023/08/11 06:10:34;;;;;;;5.78;2.80;;;;;;;;;;5041323;28;20045;-76
2023/08/11 06:13:05;;;;;;;7.32;3.15;;;;;;;;;;5042468;28;20047;-76
2023/08/11 06:15:35;;;;;;;6.40;3.72;;;;;;;;;;5042503;28;20049;-76
2023/08/11 06:18:06;;;;;;;5.28;3.67;;;;;;;;;;5042270;28;20511;-77
2023/08/11 06:20:36;;;;;;;9.15;4.07;;;;;;;;;;5041583;28;20057;-76
2023/08/11 06:23:12;;;;;;;8.93;4.05;;;;;;;;;;5041761;28;20053;-74
2023/08/11 06:25:43;;;;;;;8.55;4.32;;;;;;;;;;5042018;28;20044;-75
2023/08/11 06:28:14;;;;;;;8.13;4.38;;;;;;;;;;5042740;28;20380;-76
2023/08/11 06:30:47;;;;;;;11.85;4.97;;;;;;;;;;5041271;28;20129;-76
2023/08/11 06:33:19;;;;;;;6.40;4.18;;;;;;;;;;5042074;28;20045;-76
2023/08/11 06:35:50;;;;;;;8.40;4.53;;;;;;;;;;5041504;28;20041;-77
2023/08/11 06:38:20;;;;;;;9.82;4.47;;;;;;;;;;5041789;28;20416;-77
2023/08/11 06:40:51;;;;;;;10.93;4.10;;;;;;;;;;5041548;28;20404;-76
2023/08/11 06:43:23;;;;;;;11.75;5.18;;;;;;;;;;5040356;28;20061;-76
2023/08/11 06:45:54;;;;;;;10.63;5.07;;;;;;;;;;5041926;28;20049;-76
2023/08/11 06:48:29;;;;;;;10.23;5.13;;;;;;;;;;5041278;28;20053;-76
2023/08/11 06:50:59;;;;;;;11.60;4.60;;;;;;;;;;5042046;28;20049;-76
2023/08/11 06:53:30;;;;;;;23.75;4.97;;;;;;;;;;5044631;28;20052;-77
2023/08/11 06:56:01;;;;;;;8.48;5.00;;;;;;;;;;5045585;28;20049;-77
2023/08/11 06:58:31;;;;;;;10.45;4.45;;;;;;;;;;5045831;28;20072;-77
2023/08/11 07:01:03;;;;;;;10.32;4.75;;;;;;;;;;5045579;28;20447;-77
2023/08/11 07:03:33;;;;;;;8.13;4.57;;;;;;;;;;5045823;28;20428;-76
2023/08/11 07:06:05;;;;;;;11.13;4.57;;;;;;;;;;5044309;28;20053;-77
2023/08/11 07:08:40;;;;;;;7.88;4.55;;;;;;;;;;5045210;28;20052;-76
2023/08/11 07:11:11;;;;;;;10.07;4.55;;;;;;;;;;5044665;28;20056;-76
2023/08/11 07:13:42;;;;;;;7.78;4.15;;;;;;;;;;5045399;28;20519;-76
2023/08/11 07:16:13;;;;;;;6.70;3.85;;;;;;;;;;5044604;28;20577;-77
2023/08/11 07:18:43;;;;;;;8.93;3.78;;;;;;;;;;5045108;28;20064;-78
2023/08/11 07:21:13;;;;;;;8.57;1.77;;;;;;;;;;5045497;28;20392;-77
2023/08/11 07:23:43;;;;;;;5.75;1.42;;;;;;;;;;5044871;28;20373;-77
2023/08/11 07:26:14;;;;;;;1.23;0.85;;;;;;;;;;5045924;28;20044;-78
2023/08/11 07:28:45;;;;;;;4.25;1.17;;;;;;;;;;5045005;28;20355;-77
2023/08/11 07:31:16;;;;;;;2.85;0.70;;;;;;;;;;5042922;28;20052;-76
2023/08/11 07:33:46;;;;;;;2.60;0.70;;;;;;;;;;5044461;28;20060;-80
2023/08/11 07:36:23;;;;;;;1.55;0.90;;;;;;;;;;5044149;28;20048;-77
2023/08/11 07:38:53;;;;;;;0.75;0.60;;;;;;;;;;5044638;28;20048;-78
2023/08/11 07:41:37;;;;;;;1.40;0.63;;;;;;;;;;5044900;28;20060;-78
2023/08/11 07:44:07;;;;;;;1.92;0.80;;;;;;;;;;5044686;28;20516;-80
2023/08/11 07:46:37;;;;;;;1.00;0.60;;;;;;;;;;5043587;28;20068;-77
2023/08/11 07:49:08;;;;;;;1.80;0.65;;;;;;;;;;5044420;28;20530;-77
2023/08/11 07:51:40;;;;;;;0.73;0.63;;;;;;;;;;5044712;28;20060;-81
2023/08/11 07:54:13;;;;;;;2.15;0.70;;;;;;;;;;5044663;28;20416;-79
2023/08/11 07:56:46;;;;;;;0.82;0.80;;;;;;;;;;5042848;28;21145;-76
2023/08/11 07:59:17;;;;;;;1.58;0.80;;;;;;;;;;5043946;28;20875;-82
2023/08/11 08:01:47;;;;;;;4.03;0.80;;;;;;;;;;5044095;28;20045;-76
2023/08/11 08:04:18;;;;;;;0.90;0.60;;;;;;;;;;5043878;28;20060;-77
2023/08/11 08:06:49;;;;;;;0.98;0.70;;;;;;;;;;5044771;28;20060;-79
2023/08/11 08:09:19;;;;;;;0.60;0.50;;;;;;;;;;5043858;28;20080;-76
2023/08/11 08:11:50;;;;;;;1.60;0.80;;;;;;;;;;5044318;28;20053;-76
2023/08/11 08:14:21;;;;;;;0.60;0.60;;;;;;;;;;5044712;28;20052;-76
2023/08/11 08:16:51;;;;;;;2.03;0.80;;;;;;;;;;5044191;28;20049;-77
2023/08/11 08:19:22;;;;;;;0.80;0.77;;;;;;;;;;5042035;28;20068;-77
2023/08/11 08:21:52;;;;;;;2.17;0.85;;;;;;;;;;5044133;28;20465;-77
2023/08/11 08:24:23;;;;;;;1.20;0.73;;;;;;;;;;5042157;28;20512;-76
2023/08/11 08:26:53;;;;;;;1.45;0.80;;;;;;;;;;5044449;28;20047;-77
2023/08/11 08:29:25;;;;;;;1.38;0.70;;;;;;;;;;5044746;28;20048;-77
2023/08/11 08:31:55;;;;;;;4.28;0.75;;;;;;;;;;5044916;28;20056;-76
2023/08/11 08:34:26;;;;;;;1.23;1.10;;;;;;;;;;5043644;28;20175;-78
2023/08/11 08:36:57;;;;;;;0.60;0.52;;;;;;;;;;5043696;28;20053;-76
2023/08/11 08:39:26;;;;;;;2.60;0.65;;;;;;;;;;5042540;28;20500;-76
2023/08/11 08:41:58;;;;;;;0.90;0.70;;;;;;;;;;5043192;28;20060;-78
2023/08/11 08:44:31;;;;;;;1.42;0.73;;;;;;;;;;5043795;28;20217;-77
2023/08/11 08:47:06;;;;;;;3.00;0.73;;;;;;;;;;5043580;28;20047;-76
2023/08/11 08:49:37;;;;;;;1.13;0.80;;;;;;;;;;5043168;28;20045;-78
2023/08/11 08:52:07;;;;;;;1.67;0.63;;;;;;;;;;5043780;28;20575;-74
2023/08/11 08:54:39;;;;;;;1.88;0.82;;;;;;;;;;5043438;28;20037;-76
2023/08/11 08:57:10;;;;;;;2.40;0.88;;;;;;;;;;5043046;28;20051;-78
2023/08/11 08:59:45;;;;;;;1.55;0.80;;;;;;;;;;5042459;28;20416;-77
2023/08/11 09:02:16;;;;;;;1.20;0.80;;;;;;;;;;5042529;28;20041;-78
2023/08/11 09:04:47;;;;;;;1.92;1.05;;;;;;;;;;5043364;28;20045;-78
2023/08/11 09:07:18;;;;;;;10.15;1.30;;;;;;;;;;5042876;28;20052;-77
2023/08/11 09:09:50;;;;;;;1.15;0.77;;;;;;;;;;5042991;28;20504;-77
2023/08/11 09:12:20;;;;;;;1.98;0.70;;;;;;;;;;5042133;28;20049;-76
2023/08/11 09:14:51;;;;;;;1.48;0.93;;;;;;;;;;5042731;28;20053;-80
2023/08/11 09:17:21;;;;;;;1.75;0.82;;;;;;;;;;5042551;28;20045;-79
2023/08/11 09:19:53;;;;;;;1.20;0.90;;;;;;;;;;5043176;28;20500;-75
2023/08/11 09:22:24;;;;;;;1.80;1.05;;;;;;;;;;5042848;28;20048;-76
2023/08/11 09:24:56;;;;;;;2.92;1.10;;;;;;;;;;5043477;28;20435;-78
2023/08/11 09:27:29;;;;;;;1.55;0.88;;;;;;;;;;5043142;28;20045;-79
2023/08/11 09:30:00;;;;;;;1.25;0.80;;;;;;;;;;5043146;28;20053;-78
2023/08/11 09:32:33;;;;;;;1.58;1.40;;;;;;;;;;5042692;28;20055;-77
2023/08/11 09:35:09;;;;;;;0.90;0.88;;;;;;;;;;5041743;28;20063;-77
2023/08/11 09:37:43;;;;;;;2.40;1.20;;;;;;;;;;5043741;28;20978;-77
2023/08/11 09:40:14;;;;;;;1.40;1.00;;;;;;;;;;5043318;28;20393;-78
2023/08/11 09:42:45;;;;;;;2.22;1.13;;;;;;;;;;5041996;28;20045;-76
2023/08/11 09:45:19;;;;;;;1.13;1.02;;;;;;;;;;5042151;28;20539;-78
2023/08/11 09:47:51;;;;;;;0.75;0.75;;;;;;;;;;5041629;28;20064;-76
2023/08/11 09:50:24;;;;;;;1.63;1.10;;;;;;;;;;5042383;28;20522;-76
2023/08/11 09:52:59;;;;;;;2.53;1.10;;;;;;;;;;5042231;28;20048;-77
2023/08/11 09:55:32;;;;;;;1.67;1.05;;;;;;;;;;5042209;28;20053;-79
2023/08/11 09:58:04;;;;;;;1.35;0.85;;;;;;;;;;5041460;28;20095;-78
2023/08/11 10:00:35;;;;;;;2.10;1.10;;;;;;;;;;5042453;28;20515;-75
2023/08/11 10:03:13;;;;;;;2.10;1.38;;;;;;;;;;5041804;28;20040;-76
2023/08/11 10:05:49;;;;;;;1.73;1.00;;;;;;;;;;5041300;28;20053;-76
2023/08/11 10:08:24;;;;;;;3.25;1.00;;;;;;;;;;5041402;28;20045;-76
2023/08/11 10:10:55;;;;;;;2.38;1.10;;;;;;;;;;5042207;28;20048;-76
2023/08/11 10:13:28;;;;;;;3.30;1.00;;;;;;;;;;5041937;28;20041;-75
2023/08/11 10:16:00;;;;;;;1.88;1.17;;;;;;;;;;5041996;28;20423;-75
2023/08/11 10:18:32;;;;;;;3.53;1.20;;;;;;;;;;5042037;28;20037;-79
2023/08/11 10:21:03;;;;;;;2.08;1.25;;;;;;;;;;5041292;28;20053;-77
2023/08/11 10:23:33;;;;;;;3.50;1.60;;;;;;;;;;5041264;28;20049;-78
2023/08/11 10:26:05;;;;;;;4.10;2.03;;;;;;;;;;5041426;28;20504;-76
2023/08/11 10:28:36;;;;;;;4.25;2.38;;;;;;;;;;5039458;28;20741;-78
2023/08/11 10:31:12;;;;;;;3.20;1.45;;;;;;;;;;5041426;28;20049;-78
2023/08/11 10:33:49;;;;;;;3.05;1.58;;;;;;;;;;5042585;28;20060;-78
2023/08/11 10:36:26;;;;;;;4.45;1.42;;;;;;;;;;5041645;28;20056;-79
2023/08/11 10:39:06;;;;;;;3.15;1.67;;;;;;;;;;5045146;28;20036;-79
2023/08/11 10:41:43;;;;;;;2.38;1.20;;;;;;;;;;5061096;28;20040;-77
2023/08/11 10:44:18;;;;;;;1.63;1.30;;;;;;;;;;5061266;28;20060;-77
2023/08/11 10:46:50;;;;;;;2.00;1.10;;;;;;;;;;5061073;28;20499;-77
2023/08/11 10:49:32;;;;;;;2.05;1.00;;;;;;;;;;5061340;28;20518;-78
2023/08/11 10:52:04;;;;;;;4.28;0.98;;;;;;;;;;5059221;28;20052;-76
2023/08/11 10:54:35;;;;;;;1.67;1.20;;;;;;;;;;5060958;28;20048;-80
2023/08/11 10:57:07;;;;;;;3.10;1.23;;;;;;;;;;5061843;28;20430;-77
2023/08/11 10:59:39;;;;;;;1.85;1.15;;;;;;;;;;5060774;28;20055;-79
2023/08/11 11:02:09;;;;;;;2.00;1.13;;;;;;;;;;5061167;28;20419;-76
2023/08/11 11:04:43;;;;;;;6.63;1.00;;;;;;;;;;5060589;28;20056;-77
2023/08/11 11:07:15;;;;;;;2.60;1.23;;;;;;;;;;5061008;28;20383;-74
2023/08/11 11:09:47;;;;;;;2.80;1.20;;;;;;;;;;5061211;28;20127;-76
2023/08/11 11:12:17;;;;;;;2.30;1.20;;;;;;;;;;5059604;28;20059;-77
2023/08/11 11:14:47;;;;;;;4.03;1.30;;;;;;;;;;5061214;28;20386;-78
2023/08/11 11:17:17;;;;;;;5.05;1.42;;;;;;;;;;5061158;28;20041;-76
2023/08/11 11:19:49;;;;;;;2.83;1.63;;;;;;;;;;5059704;28;20075;-77
2023/08/11 11:22:21;;;;;;;2.67;1.73;;;;;;;;;;5061546;28;20060;-76
2023/08/11 11:24:52;;;;;;;4.30;1.63;;;;;;;;;;5060841;28;20060;-76
2023/08/11 11:27:22;;;;;;;2.55;1.52;;;;;;;;;;5061357;28;20040;-78
2023/08/11 11:30:00;;;;;;;5.57;1.33;;;;;;;;;;5061176;28;20051;-77
2023/08/11 11:32:32;;;;;;;2.60;1.60;;;;;;;;;;5061206;28;20048;-77
2023/08/11 11:35:07;;;;;;;3.78;1.63;;;;;;;;;;5059176;28;20053;-79
2023/08/11 11:37:38;;;;;;;3.38;1.10;;;;;;;;;;5060282;28;20055;-78
2023/08/11 11:40:09;;;;;;;1.00;0.90;;;;;;;;;;5063227;28;20045;-77
2023/08/11 11:42:41;;;;;;;5.22;1.40;;;;;;;;;;5062755;28;20404;-78
2023/08/11 11:45:12;;;;;;;1.95;1.10;;;;;;;;;;5063709;28;20049;-79
2023/08/11 11:47:45;;;;;;;4.03;1.20;;;;;;;;;;5062162;28;20041;-77
2023/08/11 11:50:17;;;;;;;5.03;1.02;;;;;;;;;;5063753;28;20045;-78
2023/08/11 11:52:49;;;;;;;2.45;0.95;;;;;;;;;;5064024;28;20529;-79
2023/08/11 11:55:19;;;;;;;1.60;1.10;;;;;;;;;;5064566;28;20049;-77
2023/08/11 11:57:50;;;;;;;1.20;1.05;;;;;;;;;;5063979;28;20040;-79
2023/08/11 12:00:25;;;;;;;3.60;2.22;;;;;;;;;;5062352;28;20064;-82
2023/08/11 12:02:57;;;;;;;10.75;4.03;;;;;;;;;;5063785;28;20049;-77
2023/08/11 12:05:28;;;;;;;7.85;2.63;;;;;;;;;;5063726;28;20047;-79
2023/08/11 12:07:58;;;;;;;4.28;2.08;;;;;;;;;;5063903;28;20421;-79
2023/08/11 12:10:33;;;;;;;3.15;2.08;;;;;;;;;;5064178;28;20039;-80
2023/08/11 12:13:04;;;;;;;;;;;;;;;;;;5064714;28;20048;-81
2023/08/11 12:15:36;;;;;;;5.43;1.70;;;;;;;;;;5061798;28;19936;-78
2023/08/11 12:18:08;;;;;;;2.45;0.90;;;;;;;;;;5062034;28;20045;-77
2023/08/11 12:20:40;;;;;;;1.38;1.05;;;;;;;;;;5064223;28;20053;-78
2023/08/11 12:23:11;;;;;;;1.23;0.80;;;;;;;;;;5062679;28;20506;-79
2023/08/11 12:25:42;;;;;;;3.03;0.95;;;;;;;;;;5062316;28;20044;-77
2023/08/11 12:28:11;;;;;;;3.03;1.25;;;;;;;;;;5064409;28;20048;-77
2023/08/11 12:30:42;;;;;;;2.97;1.20;;;;;;;;;;5063528;28;20928;-80
2023/08/11 12:33:15;;;;;;;1.60;1.25;;;;;;;;;;5062640;28;20060;-79
2023/08/11 12:35:48;;;;;;;2.90;1.10;;;;;;;;;;5065680;28;20491;-79
2023/08/11 12:38:20;;;;;;;3.45;1.15;;;;;;;;;;5066069;28;20048;-81
2023/08/11 12:40:51;;;;;;;3.30;1.10;;;;;;;;;;5062948;28;20530;-77
2023/08/11 12:43:23;;;;;;;1.83;1.02;;;;;;;;;;5064046;28;20095;-80
2023/08/11 12:45:54;;;;;;;3.10;1.08;;;;;;;;;;5063820;28;20388;-77
2023/08/11 12:48:24;;;;;;;1.30;1.02;;;;;;;;;;5063782;28;20049;-78
2023/08/11 12:50:54;;;;;;;3.97;1.30;;;;;;;;;;5063606;28;20044;-78
2023/08/11 12:53:25;;;;;;;2.42;1.13;;;;;;;;;;5064090;28;20483;-80
2023/08/11 12:55:56;;;;;;;2.33;1.25;;;;;;;;;;5045579;28;20068;-79
2023/08/11 12:58:26;;;;;;;14.98;2.20;;;;;;;;;;5061674;28;20065;-78
2023/08/11 13:00:56;;;;;;;6.07;1.50;;;;;;;;;;5062732;28;20055;-79
2023/08/11 13:03:27;;;;;;;7.65;1.42;;;;;;;;;;5063786;28;20063;-79
2023/08/11 13:05:58;;;;;;;5.47;1.25;;;;;;;;;;5061759;28;20059;-78
2023/08/11 13:08:28;;;;;;;2.25;1.40;;;;;;;;;;5063481;28;20103;-79
2023/08/11 13:10:59;;;;;;;4.70;1.40;;;;;;;;;;5063751;28;20044;-79
2023/08/11 13:13:30;;;;;;;3.53;1.10;;;;;;;;;;5064025;28;20052;-77
2023/08/11 13:16:00;;;;;;;1.58;0.95;;;;;;;;;;5063398;28;20056;-79
2023/08/11 13:18:31;;;;;;;2.45;1.08;;;;;;;;;;5063059;28;20404;-78
2023/08/11 13:21:02;;;;;;;2.92;1.23;;;;;;;;;;5063420;28;20040;-80
2023/08/11 13:23:33;;;;;;;2.80;1.15;;;;;;;;;;5063590;28;20064;-78
2023/08/11 13:26:04;;;;;;;2.35;1.10;;;;;;;;;;5062880;28;20059;-79
2023/08/11 13:28:37;;;;;;;1.38;0.88;;;;;;;;;;5062618;28;20052;-78
2023/08/11 13:31:07;;;;;;;8.93;1.52;;;;;;;;;;5062636;28;20052;-77
2023/08/11 13:33:38;;;;;;;3.53;1.10;;;;;;;;;;5062075;28;20052;-79
2023/08/11 13:36:09;;;;;;;1.55;0.90;;;;;;;;;;5064364;28;20048;-81
2023/08/11 13:38:40;;;;;;;6.50;1.30;;;;;;;;;;5063194;28;20059;-81
2023/08/11 13:41:11;;;;;;;2.80;1.52;;;;;;;;;;5063184;28;20057;-80
2023/08/11 13:43:41;;;;;;;9.65;1.83;;;;;;;;;;5063247;28;20052;-82
2023/08/11 13:46:12;;;;;;;1.08;0.88;;;;;;;;;;5062805;28;20050;-77
2023/08/11 13:48:43;;;;;;;2.03;0.98;;;;;;;;;;5062804;28;20053;-79
2023/08/11 13:51:14;;;;;;;2.00;0.88;;;;;;;;;;5062895;28;20044;-80
2023/08/11 13:53:43;;;;;;;5.70;2.03;;;;;;;;;;5061810;28;20052;-78
2023/08/11 13:56:15;;;;;;;4.55;1.08;;;;;;;;;;5063035;28;20515;-79
2023/08/11 13:58:45;;;;;;;2.13;0.90;;;;;;;;;;5062688;28;20052;-76
2023/08/11 14:01:15;;;;;;;7.03;1.30;;;;;;;;;;5063270;28;20056;-79
2023/08/11 14:03:45;;;;;;;3.38;1.52;;;;;;;;;;5061695;28;20052;-81
2023/08/11 14:06:16;;;;;;;3.03;0.93;;;;;;;;;;5062279;28;20056;-77
2023/08/11 14:08:46;;;;;;;3.45;1.30;;;;;;;;;;5061797;28;20056;-78
2023/08/11 14:11:22;;;;;;;2.50;1.52;;;;;;;;;;5061788;28;20051;-81
2023/08/11 14:13:52;;;;;;;2.92;1.10;;;;;;;;;;5061977;28;20258;-80
2023/08/11 14:16:22;;;;;;;9.93;1.17;;;;;;;;;;5061578;28;20055;-80
2023/08/11 14:18:53;;;;;;;1.27;0.93;;;;;;;;;;5062125;28;20049;-81
2023/08/11 14:21:25;;;;;;;2.03;1.05;;;;;;;;;;5059699;28;20651;-80
2023/08/11 14:23:56;;;;;;;1.42;0.95;;;;;;;;;;5061992;28;20067;-79
2023/08/11 14:26:26;;;;;;;1.80;0.88;;;;;;;;;;5061829;28;20128;-78
2023/08/11 14:28:56;;;;;;;1.85;0.90;;;;;;;;;;5061444;28;20056;-78
2023/08/11 14:31:27;;;;;;;5.38;1.25;;;;;;;;;;5062201;28;20685;-78
2023/08/11 14:33:58;;;;;;;2.10;1.25;;;;;;;;;;5061662;28;20047;-79
2023/08/11 14:36:29;;;;;;;3.17;1.35;;;;;;;;;;5061727;28;20048;-79
2023/08/11 14:39:04;;;;;;;5.05;1.10;;;;;;;;;;5061830;28;20053;-78
2023/08/11 14:41:34;;;;;;;2.70;0.80;;;;;;;;;;5062021;28;20049;-77
2023/08/11 14:44:05;;;;;;;2.33;1.33;;;;;;;;;;5062012;28;20048;-78
2023/08/11 14:46:35;;;;;;;8.43;1.52;;;;;;;;;;5061979;28;20044;-80
2023/08/11 14:49:06;;;;;;;1.33;0.80;;;;;;;;;;5061906;28;20053;-78
2023/08/11 14:51:38;;;;;;;3.17;1.25;;;;;;;;;;5061387;28;20052;-79
2023/08/11 14:54:08;;;;;;;1.55;1.20;;;;;;;;;;5061131;28;20410;-78
2023/08/11 14:56:39;;;;;;;7.03;2.22;;;;;;;;;;5061621;28;20262;-79
2023/08/11 14:59:10;;;;;;;2.63;1.20;;;;;;;;;;5060825;28;20049;-81
2023/08/11 15:01:40;;;;;;;5.03;1.52;;;;;;;;;;5061372;28;20419;-81
2023/08/11 15:04:11;;;;;;;5.28;1.58;;;;;;;;;;5060439;28;20056;-78
2023/08/11 15:06:41;;;;;;;2.58;1.08;;;;;;;;;;5060805;28;20056;-79
2023/08/11 15:09:13;;;;;;;1.80;1.17;;;;;;;;;;5061912;28;20048;-79
2023/08/11 15:11:43;;;;;;;2.53;1.38;;;;;;;;;;5060229;28;20053;-80
2023/08/11 15:14:14;;;;;;;3.45;1.00;;;;;;;;;;5064507;28;20048;-80